Time;durP1;ratioP1;P1;durP2;ratioP2;P2;SDS_P1;SDS_P2;PMS_P1;PMS_P2;Temp;Humidity;BMP_temperature;BMP_pressure;BME280_temperature;BME280_humidity;BME280_pressure;Samples;Min_cycle;Max_cycle;Signal;HPM_P1;HPM_P2
2021/06/02 00:00:42;;;;;;;4.88;2.35;;;19.10;63.00;;;;;;5050940;28;20489;-84
2021/06/02 00:03:12;;;;;;;5.20;2.67;;;19.10;63.00;;;;;;5051477;28;20013;-84
2021/06/02 00:05:40;;;;;;;6.47;2.53;;;19.00;62.80;;;;;;5051618;28;20496;-84
2021/06/02 00:08:10;;;;;;;5.18;2.67;;;19.00;63.90;;;;;;5050158;28;20021;-84
2021/06/02 00:10:36;;;;;;;3.92;2.55;;;19.00;63.40;;;;;;5049608;28;20091;-83
2021/06/02 00:13:02;;;;;;;7.10;3.03;;;18.90;63.70;;;;;;5050099;28;20029;-84
2021/06/02 00:15:28;;;;;;;6.20;2.33;;;18.90;64.20;;;;;;5050235;28;20021;-83
2021/06/02 00:17:53;;;;;;;6.35;2.50;;;18.80;65.20;;;;;;5051364;28;20074;-84
2021/06/02 00:20:19;;;;;;;5.32;2.70;;;18.80;64.60;;;;;;5049438;28;20025;-84
2021/06/02 00:22:46;;;;;;;4.93;2.40;;;18.80;64.80;;;;;;5051327;28;20104;-85
2021/06/02 00:25:13;;;;;;;4.43;2.22;;;18.70;64.80;;;;;;5051252;28;20037;-85
2021/06/02 00:27:40;;;;;;;5.90;2.50;;;18.60;65.10;;;;;;5052632;28;20021;-84
2021/06/02 00:30:09;;;;;;;3.78;2.65;;;18.50;65.20;;;;;;5054528;28;20036;-85
2021/06/02 00:32:35;;;;;;;4.88;2.70;;;18.40;65.20;;;;;;5053857;28;20485;-85
2021/06/02 00:35:02;;;;;;;4.70;3.10;;;18.40;65.10;;;;;;5053522;28;20029;-84
2021/06/02 00:37:29;;;;;;;4.63;2.83;;;18.40;64.90;;;;;;5053658;28;20032;-85
2021/06/02 00:39:57;;;;;;;6.13;3.05;;;18.40;65.30;;;;;;5053648;28;20389;-84
2021/06/02 00:42:32;;;;;;;4.90;2.60;;;18.40;65.50;;;;;;5054742;28;20025;-85
2021/06/02 00:44:59;;;;;;;6.05;2.38;;;18.40;65.50;;;;;;5053425;28;20033;-85
2021/06/02 00:47:26;;;;;;;6.88;2.80;;;18.30;66.20;;;;;;5053401;28;20508;-84
2021/06/02 00:49:52;;;;;;;4.65;2.67;;;18.30;66.40;;;;;;5052786;28;20074;-85
2021/06/02 00:52:18;;;;;;;4.97;2.80;;;18.30;66.60;;;;;;5053520;28;20021;-85
2021/06/02 00:54:44;;;;;;;8.95;2.90;;;18.20;66.90;;;;;;5054617;28;20108;-85
2021/06/02 00:57:17;;;;;;;3.90;2.55;;;18.10;67.10;;;;;;5053228;28;20107;-84
2021/06/02 00:59:44;;;;;;;4.65;2.63;;;18.00;67.70;;;;;;5052640;28;20025;-85
2021/06/02 01:02:13;;;;;;;5.10;2.83;;;18.00;67.70;;;;;;5053124;28;20066;-85
2021/06/02 01:04:40;;;;;;;4.68;2.80;;;18.00;68.10;;;;;;5053252;28;20460;-85
2021/06/02 01:07:08;;;;;;;5.07;2.90;;;18.00;68.70;;;;;;5053082;28;20036;-84
2021/06/02 01:09:34;;;;;;;6.32;2.72;;;17.90;68.60;;;;;;5052407;28;20025;-85
2021/06/02 01:12:00;;;;;;;4.85;2.83;;;17.80;69.10;;;;;;5054186;28;20374;-84
2021/06/02 01:14:29;;;;;;;6.20;3.17;;;17.80;69.30;;;;;;5054558;28;20021;-85
2021/06/02 01:16:56;;;;;;;5.63;2.85;;;17.80;69.60;;;;;;5052943;28;20420;-85
2021/06/02 01:19:23;;;;;;;6.65;2.90;;;17.80;69.60;;;;;;5052180;28;20082;-85
2021/06/02 01:22:01;;;;;;;10.77;3.67;;;17.70;69.90;;;;;;5053996;28;20017;-84
2021/06/02 01:24:31;;;;;;;5.75;2.60;;;17.70;71.00;;;;;;5054012;28;20021;-85
2021/06/02 01:26:59;;;;;;;4.93;2.83;;;17.70;70.70;;;;;;5052606;28;20033;-84
2021/06/02 01:29:26;;;;;;;4.53;3.03;;;17.60;71.20;;;;;;5052170;28;20397;-85
2021/06/02 01:32:10;;;;;;;5.97;3.25;;;17.50;72.10;;;;;;5052594;28;20033;-84
2021/06/02 01:35:13;;;;;;;6.97;2.60;;;17.40;72.70;;;;;;5052545;28;20029;-84
2021/06/02 01:38:11;;;;;;;6.07;3.05;;;17.30;73.40;;;;;;5052095;28;20033;-85
2021/06/02 01:41:08;;;;;;;6.68;3.40;;;17.30;73.80;;;;;;5053178;28;20017;-85
2021/06/02 01:44:01;;;;;;;7.30;2.75;;;17.10;74.10;;;;;;5052282;28;20094;-85
2021/06/02 01:46:44;;;;;;;6.05;2.83;;;17.20;74.10;;;;;;5053739;28;20025;-84
2021/06/02 01:49:42;;;;;;;5.15;2.80;;;17.30;74.00;;;;;;5051698;28;20017;-84
2021/06/02 01:52:45;;;;;;;5.70;3.17;;;17.20;74.30;;;;;;5052184;28;20024;-85
2021/06/02 01:55:39;;;;;;;7.28;2.90;;;17.20;74.50;;;;;;5051944;28;20056;-85
2021/06/02 01:58:22;;;;;;;6.88;2.92;;;17.10;74.90;;;;;;5051976;28;20091;-84
2021/06/02 02:01:00;;;;;;;5.40;2.90;;;17.10;75.00;;;;;;5051510;28;20021;-83
2021/06/02 02:03:44;;;;;;;4.70;2.95;;;17.10;75.40;;;;;;5053297;28;20504;-85
2021/06/02 02:06:10;;;;;;;6.60;3.30;;;17.10;75.40;;;;;;5052069;28;20162;-85
2021/06/02 02:09:04;;;;;;;6.65;3.00;;;17.10;75.60;;;;;;5051790;28;20055;-85
2021/06/02 02:11:38;;;;;;;5.03;3.20;;;17.00;75.80;;;;;;5051832;28;20489;-85
2021/06/02 02:14:22;;;;;;;7.43;3.08;;;17.00;76.50;;;;;;5051624;28;20029;-85
2021/06/02 02:16:54;;;;;;;7.43;3.20;;;17.00;76.20;;;;;;5051611;28;20060;-84
2021/06/02 02:19:41;;;;;;;5.95;2.97;;;17.00;76.00;;;;;;5051252;28;20025;-84
2021/06/02 02:22:36;;;;;;;5.15;2.90;;;17.00;76.00;;;;;;5051614;28;20032;-84
2021/06/02 02:25:17;;;;;;;5.50;3.00;;;17.00;76.10;;;;;;5045907;28;20041;-85
2021/06/02 02:28:19;;;;;;;5.95;3.00;;;16.90;76.50;;;;;;5052720;28;20024;-84
2021/06/02 02:31:06;;;;;;;7.03;3.70;;;16.90;77.00;;;;;;5052202;28;20370;-83
2021/06/02 02:34:04;;;;;;;6.93;3.53;;;17.00;76.90;;;;;;5051252;28;20033;-85
2021/06/02 02:36:31;;;;;;;6.45;3.20;;;17.00;77.00;;;;;;5052502;28;20021;-84
2021/06/02 02:39:03;;;;;;;10.20;3.47;;;16.90;77.10;;;;;;5050752;28;20089;-85
2021/06/02 02:41:54;;;;;;;7.38;3.25;;;16.90;77.50;;;;;;5051322;28;20043;-85
2021/06/02 02:44:41;;;;;;;7.45;3.70;;;16.90;78.60;;;;;;5051362;28;20068;-85
2021/06/02 02:47:22;;;;;;;9.23;3.05;;;16.90;78.30;;;;;;5052461;28;20029;-85
2021/06/02 02:50:25;;;;;;;8.20;3.20;;;16.80;78.10;;;;;;5050134;28;20029;-84
2021/06/02 02:53:20;;;;;;;7.15;3.17;;;16.80;78.50;;;;;;5052188;28;20028;-85
2021/06/02 02:55:55;;;;;;;7.32;3.20;;;16.80;78.70;;;;;;5049994;28;20378;-85
2021/06/02 02:58:39;;;;;;;5.38;3.38;;;16.80;78.70;;;;;;5052143;28;20017;-85
2021/06/02 03:01:32;;;;;;;8.85;3.78;;;16.90;78.40;;;;;;5050477;28;20021;-85
2021/06/02 03:04:25;;;;;;;8.27;3.28;;;16.90;78.00;;;;;;5051061;28;20132;-84
2021/06/02 03:06:56;;;;;;;7.43;3.70;;;16.90;78.20;;;;;;5049254;28;20064;-85
2021/06/02 03:09:34;;;;;;;7.10;3.63;;;16.90;78.20;;;;;;5051683;28;20401;-84
2021/06/02 03:12:13;;;;;;;8.65;3.92;;;16.90;77.90;;;;;;5050946;28;20455;-85
2021/06/02 03:15:06;;;;;;;9.20;4.00;;;17.00;77.20;;;;;;5050833;28;20064;-85
2021/06/02 03:17:42;;;;;;;7.53;3.58;;;17.00;77.30;;;;;;5050681;28;20021;-85
2021/06/02 03:20:35;;;;;;;11.13;4.65;;;17.00;77.00;;;;;;5050197;28;20021;-84
2021/06/02 03:23:32;;;;;;;10.25;5.00;;;16.80;77.30;;;;;;5050735;28;20017;-85
2021/06/02 03:26:20;;;;;;;7.30;3.70;;;16.80;77.60;;;;;;5050979;28;20029;-85
2021/06/02 03:29:02;;;;;;;8.60;3.80;;;16.80;78.00;;;;;;5050668;28;20028;-83
2021/06/02 03:31:45;;;;;;;8.52;4.38;;;16.80;78.20;;;;;;5050268;28;20025;-84
2021/06/02 03:34:48;;;;;;;8.02;3.95;;;16.80;78.10;;;;;;5050672;28;20032;-83
2021/06/02 03:37:29;;;;;;;7.32;4.40;;;16.90;77.60;;;;;;5051653;28;20032;-85
2021/06/02 03:40:17;;;;;;;7.55;3.95;;;16.80;77.80;;;;;;5049979;28;20117;-85
2021/06/02 03:43:06;;;;;;;6.47;3.70;;;16.70;78.50;;;;;;5050397;28;20028;-84
2021/06/02 03:45:36;;;;;;;9.93;4.40;;;16.70;78.90;;;;;;5050500;28;20025;-85
2021/06/02 03:48:07;;;;;;;;;;;16.70;78.70;;;;;;5050787;28;20029;-84
2021/06/02 03:50:48;;;;;;;10.20;4.55;;;16.80;78.60;;;;;;5049796;28;19904;-83
2021/06/02 03:53:25;;;;;;;8.95;4.50;;;16.90;78.80;;;;;;5050366;28;20025;-84
2021/06/02 03:55:53;;;;;;;9.30;3.78;;;17.00;78.70;;;;;;5050865;28;20025;-85
2021/06/02 03:58:34;;;;;;;9.15;4.00;;;17.00;78.20;;;;;;5052351;28;20021;-84
2021/06/02 04:01:25;;;;;;;6.45;3.85;;;17.00;78.60;;;;;;5052304;28;20060;-84
2021/06/02 04:03:59;;;;;;;8.45;4.05;;;16.90;79.00;;;;;;5054418;28;20025;-84
2021/06/02 04:06:40;;;;;;;9.90;4.35;;;16.70;79.70;;;;;;5055428;28;20485;-85
2021/06/02 04:09:11;;;;;;;8.40;4.05;;;16.70;80.10;;;;;;5055019;28;20121;-84
2021/06/02 04:11:56;;;;;;;8.30;4.68;;;16.60;80.80;;;;;;5054162;28;20428;-85
2021/06/02 04:14:30;;;;;;;11.93;4.88;;;16.50;81.90;;;;;;5055378;28;20057;-84
2021/06/02 04:16:57;;;;;;;9.60;4.88;;;16.40;82.70;;;;;;5053969;28;20025;-85
2021/06/02 04:19:25;;;;;;;9.18;4.50;;;16.40;82.70;;;;;;5053601;28;20485;-85
2021/06/02 04:21:51;;;;;;;6.80;4.20;;;16.40;82.30;;;;;;5053881;28;20057;-85
2021/06/02 04:24:18;;;;;;;8.05;4.05;;;16.30;82.70;;;;;;5055379;28;20079;-85
2021/06/02 04:26:45;;;;;;;8.52;4.43;;;16.30;82.40;;;;;;5053866;28;20051;-85
2021/06/02 04:29:13;;;;;;;9.65;4.47;;;16.30;82.20;;;;;;5054557;28;20547;-85
2021/06/02 04:31:50;;;;;;;10.13;4.30;;;16.30;81.60;;;;;;5053793;28;20032;-85
2021/06/02 04:34:17;;;;;;;9.30;4.03;;;16.30;81.70;;;;;;5054069;28;20056;-85
2021/06/02 04:36:44;;;;;;;11.50;4.50;;;16.40;81.60;;;;;;5055791;28;20029;-85
2021/06/02 04:39:11;;;;;;;7.53;3.88;;;16.40;82.00;;;;;;5055333;28;20025;-85
2021/06/02 04:41:39;;;;;;;8.65;4.18;;;16.40;82.30;;;;;;5055954;28;20028;-85
2021/06/02 04:44:07;;;;;;;9.63;4.35;;;16.40;83.10;;;;;;5054652;28;20051;-84
2021/06/02 04:46:33;;;;;;;8.45;4.70;;;16.40;82.50;;;;;;5053915;28;20029;-84
2021/06/02 04:48:59;;;;;;;9.55;4.55;;;16.50;82.80;;;;;;5054404;28;20032;-84
2021/06/02 04:52:01;;;;;;;9.80;4.50;;;16.50;83.20;;;;;;5053620;28;20043;-84
2021/06/02 04:54:45;;;;;;;11.93;5.20;;;16.60;83.60;;;;;;4976699;28;20080;-84
2021/06/02 04:57:48;;;;;;;11.00;5.45;;;16.60;83.90;;;;;;5049788;28;20033;-84
2021/06/02 05:00:31;;;;;;;13.48;5.57;;;16.70;84.20;;;;;;5052684;28;20058;-85
2021/06/02 05:03:15;;;;;;;12.40;5.93;;;16.90;83.90;;;;;;5053206;28;20367;-85
2021/06/02 05:05:49;;;;;;;11.25;4.93;;;16.90;83.40;;;;;;5054543;28;20048;-83
2021/06/02 05:08:39;;;;;;;9.23;4.38;;;17.00;83.20;;;;;;5052945;28;20068;-84
2021/06/02 05:11:34;;;;;;;11.43;4.30;;;17.10;82.40;;;;;;5053794;28;20067;-84
2021/06/02 05:13:59;;;;;;;11.52;4.90;;;17.20;82.10;;;;;;5052481;28;20037;-85
2021/06/02 05:17:03;;;;;;;8.40;4.57;;;17.20;82.30;;;;;;5052788;28;20070;-84
2021/06/02 05:20:16;;;;;;;8.02;4.00;;;17.30;82.10;;;;;;5052306;28;20025;-85
2021/06/02 05:22:51;;;;;;;7.97;4.10;;;17.40;82.40;;;;;;5052818;28;20040;-84
2021/06/02 05:25:56;;;;;;;8.90;3.85;;;17.40;82.30;;;;;;5052840;28;20033;-85
2021/06/02 05:28:31;;;;;;;9.43;4.38;;;17.50;82.10;;;;;;5054476;28;20025;-85
2021/06/02 05:31:34;;;;;;;9.00;4.40;;;17.60;81.40;;;;;;5052872;28;20157;-85
2021/06/02 05:34:22;;;;;;;6.43;4.22;;;17.70;81.70;;;;;;5052816;28;20056;-85
2021/06/02 05:37:08;;;;;;;7.17;3.83;;;17.70;81.60;;;;;;5078054;22;20025;-86
2021/06/02 05:39:53;;;;;;;10.45;3.80;;;17.80;80.30;;;;;;5013290;28;20257;-86
2021/06/02 05:42:46;;;;;;;9.40;3.83;;;17.80;79.90;;;;;;5029600;28;20088;-86
2021/06/02 05:45:30;;;;;;;7.65;3.58;;;17.90;79.40;;;;;;5029589;28;20037;-86
2021/06/02 05:48:26;;;;;;;7.72;3.70;;;18.00;77.60;;;;;;5029875;28;20053;-86
2021/06/02 05:51:22;;;;;;;7.90;3.22;;;18.10;77.60;;;;;;5013648;28;20022;-86
2021/06/02 05:54:09;;;;;;;5.68;3.70;;;18.10;76.90;;;;;;5029772;28;20411;-85
2021/06/02 05:56:49;;;;;;;7.05;2.92;;;18.20;77.10;;;;;;5029749;28;20022;-85
2021/06/02 05:59:42;;;;;;;4.90;3.13;;;18.20;77.00;;;;;;5012633;28;20157;-85
2021/06/02 06:02:16;;;;;;;6.32;2.90;;;18.30;76.10;;;;;;5014518;28;20534;-85
2021/06/02 06:05:04;;;;;;;8.38;3.03;;;18.40;75.00;;;;;;5029564;28;20490;-85
2021/06/02 06:07:57;;;;;;;5.95;2.85;;;18.40;74.40;;;;;;5030179;28;20034;-85
2021/06/02 06:10:50;;;;;;;4.82;2.90;;;18.50;74.80;;;;;;5029099;28;20505;-85
2021/06/02 06:13:28;;;;;;;5.13;2.85;;;18.50;74.10;;;;;;5013457;28;20026;-85
2021/06/02 06:16:18;;;;;;;4.78;2.90;;;18.60;74.00;;;;;;5028650;28;20401;-85
2021/06/02 06:19:24;;;;;;;5.70;2.67;;;18.60;73.70;;;;;;5028442;28;20026;-85
2021/06/02 06:21:59;;;;;;;5.38;2.55;;;18.60;73.70;;;;;;5028449;28;20530;-85
2021/06/02 06:24:35;;;;;;;4.50;2.80;;;18.70;73.70;;;;;;5027544;28;20112;-85
2021/06/02 06:27:15;;;;;;;5.43;2.90;;;18.70;72.10;;;;;;5011920;28;20061;-85
2021/06/02 06:29:49;;;;;;;5.43;2.70;;;18.70;71.40;;;;;;5011494;28;20033;-85
2021/06/02 06:32:17;;;;;;;6.18;3.15;;;18.80;70.70;;;;;;5013002;28;20037;-85
2021/06/02 06:34:46;;;;;;;6.95;3.35;;;18.80;70.50;;;;;;5013120;28;20030;-85
2021/06/02 06:37:14;;;;;;;4.10;2.90;;;18.80;70.50;;;;;;5027936;28;20029;-85
2021/06/02 06:39:53;;;;;;;4.95;3.13;;;18.80;70.20;;;;;;5028010;28;20032;-85
2021/06/02 06:42:23;;;;;;;7.53;3.10;;;18.90;70.20;;;;;;5028250;28;20037;-85
2021/06/02 06:45:03;;;;;;;5.20;2.80;;;18.90;70.00;;;;;;5013009;28;20061;-86
2021/06/02 06:47:33;;;;;;;5.47;2.78;;;18.90;69.30;;;;;;5012922;28;20034;-85
2021/06/02 06:50:06;;;;;;;4.57;2.95;;;19.00;68.20;;;;;;5012304;28;20513;-85
2021/06/02 06:52:34;;;;;;;4.10;2.80;;;19.00;67.90;;;;;;5011519;28;20022;-85
2021/06/02 06:55:01;;;;;;;5.18;2.40;;;19.00;68.00;;;;;;5012592;28;20026;-85
2021/06/02 06:57:27;;;;;;;4.20;2.55;;;19.00;68.10;;;;;;5011330;28;20030;-85
2021/06/02 06:59:54;;;;;;;5.03;2.40;;;19.00;68.10;;;;;;5010990;28;20050;-85
2021/06/02 07:02:20;;;;;;;5.10;3.13;;;19.00;68.20;;;;;;5012491;28;20017;-85
2021/06/02 07:04:47;;;;;;;6.20;2.65;;;19.10;68.10;;;;;;5011498;28;20391;-85
2021/06/02 07:07:14;;;;;;;4.97;2.65;;;19.10;67.80;;;;;;5011239;28;20117;-85
2021/06/02 07:09:39;;;;;;;4.40;2.60;;;19.10;67.20;;;;;;5010742;28;20032;-85
2021/06/02 07:12:07;;;;;;;4.68;2.60;;;19.10;67.20;;;;;;5011258;28;20422;-85
2021/06/02 07:14:36;;;;;;;5.30;2.70;;;19.20;67.10;;;;;;5011098;28;20029;-85
2021/06/02 07:17:06;;;;;;;11.80;3.35;;;19.20;67.30;;;;;;5012296;28;20486;-85
2021/06/02 07:19:33;;;;;;;4.63;2.80;;;19.20;67.70;;;;;;5010754;28;20076;-85
2021/06/02 07:22:00;;;;;;;4.57;2.38;;;19.20;67.10;;;;;;5011046;28;20394;-85
2021/06/02 07:24:26;;;;;;;3.85;2.45;;;19.30;67.80;;;;;;5011154;28;20079;-85
2021/06/02 07:26:53;;;;;;;4.97;2.60;;;19.30;67.50;;;;;;5027586;28;20044;-85
2021/06/02 07:29:19;;;;;;;6.90;2.80;;;19.30;67.80;;;;;;5011886;28;20524;-85
2021/06/02 07:31:44;;;;;;;5.35;3.03;;;19.30;68.00;;;;;;5027534;28;20026;-85
2021/06/02 07:34:10;;;;;;;3.97;2.42;;;19.40;67.70;;;;;;5027293;28;20025;-85
2021/06/02 07:36:37;;;;;;;6.45;2.72;;;19.40;67.50;;;;;;5011921;28;20534;-85
2021/06/02 07:39:04;;;;;;;4.72;2.30;;;19.40;67.60;;;;;;5011478;28;20061;-85
2021/06/02 07:41:30;;;;;;;6.32;3.53;;;19.40;68.00;;;;;;5010841;28;20100;-85
2021/06/02 07:43:55;;;;;;;6.15;3.38;;;19.50;67.60;;;;;;5010915;28;20057;-85
2021/06/02 07:46:21;;;;;;;5.18;3.17;;;19.50;67.30;;;;;;5011963;28;20104;-85
2021/06/02 07:48:47;;;;;;;7.15;3.17;;;19.50;67.50;;;;;;5027061;28;20033;-85
2021/06/02 07:51:13;;;;;;;7.80;4.10;;;19.50;67.90;;;;;;5010652;28;20030;-85
2021/06/02 07:53:38;;;;;;;10.65;3.75;;;19.60;68.10;;;;;;5010908;28;20113;-85
2021/06/02 07:56:04;;;;;;;7.10;3.88;;;19.70;67.80;;;;;;5010762;28;20085;-85
2021/06/02 07:58:30;;;;;;;6.00;3.70;;;19.70;67.90;;;;;;5011781;28;20026;-85
2021/06/02 08:00:55;;;;;;;5.13;3.10;;;19.70;67.80;;;;;;5011582;28;20026;-85
2021/06/02 08:03:21;;;;;;;6.03;3.22;;;19.70;67.90;;;;;;5010618;28;20018;-85
2021/06/02 08:05:47;;;;;;;5.53;3.25;;;19.70;68.60;;;;;;5012015;28;20064;-85
2021/06/02 08:08:12;;;;;;;8.13;3.80;;;19.70;68.50;;;;;;5011935;28;20025;-85
2021/06/02 08:10:38;;;;;;;5.63;3.03;;;19.80;68.10;;;;;;5026610;28;20390;-85
2021/06/02 08:13:04;;;;;;;5.88;2.90;;;19.80;67.30;;;;;;5010582;28;20026;-85
2021/06/02 08:15:30;;;;;;;4.68;3.03;;;19.80;67.20;;;;;;5010593;28;20550;-85
2021/06/02 08:17:57;;;;;;;7.97;2.95;;;19.90;67.10;;;;;;5010853;28;20113;-85
2021/06/02 08:20:22;;;;;;;6.03;2.83;;;19.90;66.00;;;;;;5010092;28;20072;-85
2021/06/02 08:22:48;;;;;;;5.97;2.90;;;20.00;65.50;;;;;;5011658;28;20026;-85
2021/06/02 08:25:16;;;;;;;6.72;2.85;;;20.00;64.50;;;;;;5011781;28;20429;-85
2021/06/02 08:27:44;;;;;;;4.80;2.60;;;20.10;64.60;;;;;;5010433;28;20112;-85
2021/06/02 08:30:10;;;;;;;3.90;2.60;;;20.10;64.70;;;;;;5011309;28;20047;-85
2021/06/02 08:32:37;;;;;;;6.10;2.90;;;20.10;65.10;;;;;;5011674;28;20538;-85
2021/06/02 08:35:05;;;;;;;4.47;2.63;;;20.10;64.70;;;;;;5010502;28;20034;-85
2021/06/02 08:37:30;;;;;;;4.25;2.60;;;20.20;63.60;;;;;;5011683;28;20128;-85
2021/06/02 08:39:56;;;;;;;5.85;3.80;;;20.20;63.60;;;;;;5009815;28;20113;-85
2021/06/02 08:42:22;;;;;;;8.15;2.90;;;20.20;63.90;;;;;;5010319;28;20398;-85
2021/06/02 08:44:48;;;;;;;5.55;2.50;;;20.30;63.20;;;;;;5011523;28;20113;-85
2021/06/02 08:47:14;;;;;;;6.40;2.85;;;20.30;63.00;;;;;;5027247;28;20037;-85
2021/06/02 08:49:39;;;;;;;8.10;2.83;;;20.40;62.80;;;;;;5014559;28;20394;-85
2021/06/02 08:52:07;;;;;;;7.43;2.72;;;20.50;61.50;;;;;;5013786;28;20030;-85
2021/06/02 08:54:34;;;;;;;3.80;2.20;;;20.50;61.20;;;;;;5013768;28;20065;-85
2021/06/02 08:57:05;;;;;;;6.07;2.70;;;20.60;61.20;;;;;;5013594;28;20121;-85
2021/06/02 08:59:31;;;;;;;4.85;2.90;;;20.60;61.20;;;;;;5013105;28;20018;-85
2021/06/02 09:01:58;;;;;;;7.43;2.70;;;20.50;60.50;;;;;;5013565;28;20026;-85
2021/06/02 09:04:25;;;;;;;4.75;2.90;;;20.60;59.60;;;;;;5013859;28;20084;-85
2021/06/02 09:06:51;;;;;;;4.47;2.92;;;20.70;59.90;;;;;;5013626;28;20519;-84
2021/06/02 09:09:18;;;;;;;4.65;2.63;;;20.70;60.20;;;;;;5014392;28;20026;-85
2021/06/02 09:11:49;;;;;;;7.30;2.97;;;20.70;60.50;;;;;;5013494;28;20402;-85
2021/06/02 09:14:26;;;;;;;6.00;2.67;;;20.80;60.30;;;;;;5013731;28;20025;-85
2021/06/02 09:16:55;;;;;;;5.72;2.58;;;21.00;58.80;;;;;;5013336;28;20030;-85
2021/06/02 09:19:50;;;;;;;5.22;2.40;;;20.90;59.00;;;;;;5012777;28;20105;-85
2021/06/02 09:22:17;;;;;;;4.78;3.05;;;20.90;59.20;;;;;;5009882;28;20501;-85
2021/06/02 09:24:48;;;;;;;4.38;2.55;;;20.90;59.60;;;;;;5014431;28;20060;-85
2021/06/02 09:27:15;;;;;;;4.93;2.80;;;20.90;60.40;;;;;;5029412;28;20045;-85
2021/06/02 09:29:52;;;;;;;6.82;2.75;;;21.00;59.10;;;;;;5012543;28;20049;-85
2021/06/02 09:32:23;;;;;;;4.32;2.28;;;21.10;57.90;;;;;;5014218;28;20022;-85
2021/06/02 09:34:58;;;;;;;4.13;2.15;;;21.00;57.30;;;;;;5014126;28;20032;-84
2021/06/02 09:37:26;;;;;;;6.45;2.90;;;21.00;58.70;;;;;;5012744;28;20044;-85
2021/06/02 09:39:51;;;;;;;4.73;2.60;;;21.00;58.80;;;;;;5012541;28;20137;-85
2021/06/02 09:42:19;;;;;;;4.70;2.30;;;21.00;58.30;;;;;;5012879;28;20471;-85
2021/06/02 09:45:04;;;;;;;4.95;2.17;;;21.00;58.80;;;;;;5013996;28;20030;-85
2021/06/02 09:47:44;;;;;;;4.05;2.38;;;21.00;59.00;;;;;;5012803;28;20083;-85
2021/06/02 09:50:11;;;;;;;3.88;2.55;;;21.20;55.60;;;;;;5013830;28;20026;-85
2021/06/02 09:52:42;;;;;;;4.97;2.33;;;21.20;55.90;;;;;;5029521;28;20033;-85
2021/06/02 09:55:11;;;;;;;4.47;2.20;;;21.30;55.10;;;;;;5013038;28;20018;-85
2021/06/02 09:57:36;;;;;;;5.70;2.70;;;21.60;53.50;;;;;;5029085;28;20475;-85
2021/06/02 10:00:04;;;;;;;4.97;2.28;;;21.60;53.50;;;;;;5012283;28;20121;-85
2021/06/02 10:02:29;;;;;;;4.55;2.13;;;21.70;53.20;;;;;;5012612;28;20094;-85
2021/06/02 10:05:06;;;;;;;3.75;2.30;;;21.70;52.80;;;;;;5012785;28;20034;-85
2021/06/02 10:07:33;;;;;;;10.65;7.20;;;21.70;52.60;;;;;;5013663;28;20033;-85
2021/06/02 10:10:09;;;;;;;5.90;2.58;;;21.80;51.90;;;;;;5013819;28;20073;-85
2021/06/02 10:12:35;;;;;;;4.20;2.20;;;21.70;52.00;;;;;;5012347;28;20482;-85
2021/06/02 10:15:01;;;;;;;4.05;2.10;;;21.60;52.10;;;;;;5012315;28;20032;-85
2021/06/02 10:17:38;;;;;;;5.80;2.80;;;21.50;52.80;;;;;;5012181;28;20112;-85
2021/06/02 10:20:12;;;;;;;3.58;2.38;;;21.50;53.80;;;;;;5029173;28;20041;-85
2021/06/02 10:22:39;;;;;;;5.18;2.10;;;21.50;53.20;;;;;;5012085;28;20434;-85
2021/06/02 10:25:07;;;;;;;5.50;2.78;;;21.50;52.20;;;;;;5028531;28;20030;-85
2021/06/02 10:27:33;;;;;;;3.47;2.17;;;21.80;51.00;;;;;;5011844;28;20036;-85
2021/06/02 10:29:59;;;;;;;4.25;2.03;;;21.90;50.80;;;;;;5013472;28;20449;-85
2021/06/02 10:32:26;;;;;;;3.33;1.80;;;21.80;51.40;;;;;;5029034;28;20033;-85
2021/06/02 10:34:52;;;;;;;3.20;1.73;;;21.80;52.00;;;;;;5028287;28;20025;-85
2021/06/02 10:37:19;;;;;;;3.75;2.30;;;21.70;51.40;;;;;;5013061;28;20033;-85
2021/06/02 10:39:54;;;;;;;4.10;2.20;;;21.80;50.70;;;;;;5011233;28;20045;-85
2021/06/02 10:42:28;;;;;;;3.75;2.40;;;21.80;50.40;;;;;;5028221;28;20022;-85
2021/06/02 10:45:00;;;;;;;2.83;2.00;;;22.00;51.40;;;;;;5011736;28;20565;-85
2021/06/02 10:47:27;;;;;;;3.78;2.45;;;22.10;50.70;;;;;;5011703;28;20053;-85
2021/06/02 10:49:53;;;;;;;3.08;2.08;;;22.10;51.70;;;;;;5012475;28;20033;-85
2021/06/02 10:52:54;;;;;;;6.20;2.33;;;22.00;51.80;;;;;;5012711;28;20022;-85
2021/06/02 10:55:57;;;;;;;3.90;2.53;;;22.10;50.20;;;;;;4990937;28;20426;-85
2021/06/02 10:58:34;;;;;;;3.15;2.20;;;22.20;50.70;;;;;;5027610;28;20065;-85
2021/06/02 11:01:09;;;;;;;3.97;2.20;;;22.10;51.20;;;;;;5011181;28;20072;-85
2021/06/02 11:03:42;;;;;;;6.07;2.50;;;22.40;48.00;;;;;;5012918;28;20364;-85
2021/06/02 11:06:14;;;;;;;3.08;2.10;;;22.40;47.50;;;;;;5013468;28;20079;-85
2021/06/02 11:08:49;;;;;;;3.97;1.95;;;22.40;48.10;;;;;;5027749;28;20510;-85
2021/06/02 11:11:24;;;;;;;3.67;1.83;;;22.30;48.40;;;;;;5027507;28;20068;-85
2021/06/02 11:16:45;;;;;;;4.65;2.40;;;22.30;48.90;;;;;;5012524;28;20022;-85
2021/06/02 11:19:14;;;;;;;5.35;3.08;;;22.50;47.50;;;;;;5027366;28;20029;-85
2021/06/02 11:21:55;;;;;;;5.50;2.65;;;22.60;47.00;;;;;;5012624;28;20037;-85
2021/06/02 11:24:33;;;;;;;3.70;1.95;;;22.50;46.90;;;;;;5012421;28;20045;-85
2021/06/02 11:27:14;;;;;;;6.15;2.17;;;22.40;48.20;;;;;;5012588;28;20112;-85
2021/06/02 11:29:51;;;;;;;3.33;2.08;;;22.50;48.80;;;;;;5011994;28;20467;-86
2021/06/02 11:32:18;;;;;;;3.85;2.00;;;22.70;48.30;;;;;;5012264;28;20037;-85
2021/06/02 11:34:46;;;;;;;5.63;2.60;;;22.60;49.30;;;;;;5027418;28;20025;-85
2021/06/02 11:37:15;;;;;;;3.15;1.92;;;22.70;49.00;;;;;;5037016;23;20033;-84
2021/06/02 11:39:41;;;;;;;4.70;2.00;;;22.70;49.00;;;;;;5031132;28;20392;-84
2021/06/02 11:42:10;;;;;;;4.22;2.05;;;22.70;48.80;;;;;;5030302;28;20112;-84
2021/06/02 11:44:39;;;;;;;3.00;2.00;;;22.80;47.90;;;;;;5030728;28;20034;-84
2021/06/02 11:47:09;;;;;;;4.47;2.28;;;22.80;47.80;;;;;;5046871;28;20127;-84
2021/06/02 11:49:36;;;;;;;4.72;2.38;;;23.00;47.30;;;;;;5031028;28;20101;-84
2021/06/02 11:52:07;;;;;;;4.60;2.50;;;22.90;47.90;;;;;;5030314;28;20669;-84
2021/06/02 11:54:49;;;;;;;3.85;2.47;;;22.90;48.20;;;;;;5030486;28;20440;-84
2021/06/02 11:57:39;;;;;;;4.63;2.50;;;23.00;49.00;;;;;;5030353;28;20477;-84
2021/06/02 12:00:07;;;;;;;6.82;2.25;;;23.10;49.10;;;;;;5031085;28;20036;-84
2021/06/02 12:02:33;;;;;;;4.68;2.50;;;23.10;49.80;;;;;;5030514;28;20022;-83
2021/06/02 12:05:15;;;;;;;8.95;2.40;;;23.20;49.80;;;;;;5030576;28;20041;-84
2021/06/02 12:07:52;;;;;;;3.65;2.30;;;23.20;49.20;;;;;;5031707;28;20102;-84
2021/06/02 12:10:18;;;;;;;5.28;2.58;;;23.10;50.70;;;;;;5030936;28;20049;-84
2021/06/02 12:12:45;;;;;;;3.20;2.20;;;23.20;50.30;;;;;;5030184;28;20061;-84
2021/06/02 12:15:13;;;;;;;3.72;2.15;;;23.30;50.30;;;;;;5031505;28;20033;-83
2021/06/02 12:17:39;;;;;;;3.35;2.25;;;23.30;50.60;;;;;;5030232;28;20438;-84
2021/06/02 12:20:07;;;;;;;4.00;2.10;;;23.50;49.50;;;;;;5029651;28;20025;-83
2021/06/02 12:22:34;;;;;;;5.30;2.33;;;23.50;50.10;;;;;;5031058;28;20493;-84
2021/06/02 12:25:06;;;;;;;5.82;2.63;;;23.50;49.50;;;;;;5033896;28;20511;-84
2021/06/02 12:27:48;;;;;;;3.42;2.40;;;23.60;48.40;;;;;;5033895;28;20545;-84
2021/06/02 12:30:22;;;;;;;4.18;2.20;;;23.70;48.00;;;;;;5033316;28;20055;-84
2021/06/02 12:32:55;;;;;;;4.43;2.17;;;23.70;48.50;;;;;;5035053;28;20109;-84
2021/06/02 12:35:29;;;;;;;3.70;1.90;;;23.90;47.30;;;;;;5033791;28;20026;-84
2021/06/02 12:38:01;;;;;;;6.90;2.10;;;23.90;46.80;;;;;;5033454;28;20171;-84
2021/06/02 12:40:28;;;;;;;4.95;2.40;;;24.10;45.50;;;;;;5033238;28;20093;-84
2021/06/02 12:42:54;;;;;;;5.80;1.90;;;24.30;45.00;;;;;;5033911;28;20112;-84
2021/06/02 12:45:23;;;;;;;3.15;2.00;;;24.40;44.30;;;;;;5033894;28;20156;-84
2021/06/02 12:47:49;;;;;;;4.78;2.10;;;24.50;44.80;;;;;;5033594;28;20115;-84
2021/06/02 12:50:36;;;;;;;2.80;1.88;;;24.50;45.30;;;;;;5033032;28;20121;-84
2021/06/02 12:53:02;;;;;;;3.78;2.08;;;24.40;45.40;;;;;;5033548;28;20057;-84
2021/06/02 12:55:28;;;;;;;2.60;1.60;;;24.50;45.20;;;;;;5033404;28;20435;-83
2021/06/02 12:58:04;;;;;;;3.38;1.67;;;24.50;45.00;;;;;;5034784;28;20053;-84
2021/06/02 13:00:31;;;;;;;4.82;2.00;;;24.50;44.30;;;;;;5032871;28;20546;-85
2021/06/02 13:02:58;;;;;;;2.25;1.67;;;24.30;45.30;;;;;;5033349;28;20021;-84
2021/06/02 13:05:25;;;;;;;2.60;1.73;;;24.30;45.70;;;;;;5034750;28;20036;-83
2021/06/02 13:07:51;;;;;;;6.55;2.20;;;24.10;46.20;;;;;;5034913;28;20395;-85
2021/06/02 13:10:19;;;;;;;8.00;2.30;;;24.10;47.50;;;;;;5034137;28;20021;-84
2021/06/02 13:12:54;;;;;;;3.78;2.25;;;24.00;47.40;;;;;;5033236;28;20037;-84
2021/06/02 13:15:41;;;;;;;3.80;1.83;;;23.90;48.40;;;;;;5033022;28;20383;-85
2021/06/02 13:18:28;;;;;;;3.90;2.42;;;23.90;48.10;;;;;;5033169;28;20021;-84
2021/06/02 13:20:55;;;;;;;3.08;2.17;;;23.80;47.40;;;;;;5033777;28;20026;-84
2021/06/02 13:23:26;;;;;;;6.78;2.40;;;23.80;48.30;;;;;;5032775;28;20021;-84
2021/06/02 13:26:04;;;;;;;2.92;1.90;;;23.90;47.20;;;;;;5034650;28;20032;-84